Austin, Texas
Traffic Map
Current Weather Conditions
Austin, Texas
Broken Clouds
Broken Clouds
79°
Feels Like: 80°
Wind Chill: 79° Ceiling: 5500
Heat Index: 80° Visibility: 10mi
Dew Point: 62° Wind: 12mph
Humidity: 56% Direction: 170° (S)
Pressure: 29.84in Gusts: 28mph
Raw Report DataKATT 191951Z AUTO 17010G24KT 10SM SCT040 BKN055 26/17 A2984 RMK AO2 SLP095 T02610167 $
Traffic Incident Summary
Active as of:
Severity:
Category:
InformationThere was an issue retrieving the traffic information for this location. Please try a different location or try again shortly.
Advertisements